createdAt,value
2023-04-07T00:01:10.763Z,8.80
2023-04-07T00:03:41.033Z,8.80
2023-04-07T00:06:09.267Z,8.80
2023-04-07T00:08:38.689Z,8.80
2023-04-07T00:11:07.224Z,8.70
2023-04-07T00:13:35.327Z,8.80
2023-04-07T00:16:03.420Z,8.80
2023-04-07T00:18:31.559Z,8.80
2023-04-07T00:20:59.579Z,8.70
2023-04-07T00:23:27.868Z,8.80
2023-04-07T00:25:57.400Z,8.80
2023-04-07T00:28:25.753Z,8.70
2023-04-07T00:30:53.810Z,8.80
2023-04-07T00:33:21.846Z,8.80
2023-04-07T00:35:49.893Z,8.80
2023-04-07T00:38:18.344Z,8.80
2023-04-07T00:40:46.400Z,8.70
2023-04-07T00:43:15.770Z,8.80
2023-04-07T00:45:44.133Z,8.70
2023-04-07T00:48:12.221Z,8.70
2023-04-07T00:50:40.250Z,8.70
2023-04-07T00:53:08.805Z,8.70
2023-04-07T00:55:37.068Z,8.70
2023-04-07T00:58:05.832Z,8.70
2023-04-07T01:00:39.610Z,8.70
2023-04-07T01:03:12.328Z,8.70
2023-04-07T01:05:43.899Z,8.70
2023-04-07T01:08:16.586Z,8.70
2023-04-07T01:10:51.905Z,8.70
2023-04-07T01:13:26.678Z,8.70
2023-04-07T01:15:59.071Z,8.70
2023-04-07T01:18:32.403Z,8.70
2023-04-07T01:21:05.803Z,8.70
2023-04-07T01:23:50.635Z,8.60
2023-04-07T01:26:25.947Z,8.70
2023-04-07T01:29:35.015Z,8.70
2023-04-07T01:32:08.360Z,8.70
2023-04-07T01:34:38.111Z,8.60
2023-04-07T01:37:07.888Z,8.70
2023-04-07T01:39:36.862Z,8.70
2023-04-07T01:42:06.987Z,8.70
2023-04-07T01:44:37.714Z,8.80
2023-04-07T01:47:07.109Z,8.80
2023-04-07T01:49:37.729Z,8.80
2023-04-07T01:52:07.003Z,8.70
2023-04-07T01:54:35.883Z,8.70
2023-04-07T01:57:04.209Z,8.70
2023-04-07T01:59:32.356Z,8.70
2023-04-07T02:02:01.969Z,8.70
2023-04-07T02:04:37.292Z,8.60
2023-04-07T02:07:12.736Z,8.70
2023-04-07T02:09:43.500Z,8.70
2023-04-07T02:12:14.088Z,8.80
2023-04-07T02:14:42.743Z,8.80
2023-04-07T02:17:13.091Z,8.70
2023-04-07T02:19:42.699Z,8.70
2023-04-07T02:22:11.394Z,8.70
2023-04-07T02:24:42.792Z,8.70
2023-04-07T02:27:11.340Z,8.60
2023-04-07T02:29:39.411Z,8.60
2023-04-07T02:32:07.921Z,8.60
2023-04-07T02:34:37.767Z,8.60
2023-04-07T02:37:06.258Z,8.60
2023-04-07T02:39:34.465Z,8.60
2023-04-07T02:42:02.708Z,8.60
2023-04-07T02:44:31.310Z,8.60
2023-04-07T02:46:59.516Z,8.70
2023-04-07T02:49:27.781Z,8.60
2023-04-07T02:51:57.250Z,8.60
2023-04-07T02:54:25.382Z,8.70
2023-04-07T02:56:53.408Z,8.70
2023-04-07T02:59:21.421Z,8.70
2023-04-07T03:01:49.457Z,8.70
2023-04-07T03:04:17.806Z,8.70
2023-04-07T03:06:46.134Z,8.70
2023-04-07T03:09:15.657Z,8.60
2023-04-07T03:11:43.870Z,8.60
2023-04-07T03:14:12.020Z,8.60
2023-04-07T03:16:40.132Z,8.50
2023-04-07T03:19:08.847Z,8.50
2023-04-07T03:21:38.508Z,8.50
2023-04-07T03:24:07.710Z,8.50
2023-04-07T03:26:37.531Z,8.50
2023-04-07T03:29:05.992Z,8.50
2023-04-07T03:31:34.113Z,8.50
2023-04-07T03:34:02.063Z,8.50
2023-04-07T03:36:30.134Z,8.50
2023-04-07T03:38:58.189Z,8.60
2023-04-07T03:41:26.314Z,8.60
2023-04-07T03:43:55.768Z,8.60
2023-04-07T03:46:24.524Z,8.60
2023-04-07T03:48:52.561Z,8.50
2023-04-07T03:51:20.737Z,8.50
2023-04-07T03:53:48.821Z,8.50
2023-04-07T03:56:17.135Z,8.50
2023-04-07T03:58:46.580Z,8.50
2023-04-07T04:01:16.203Z,8.60
2023-04-07T04:03:44.621Z,8.60
2023-04-07T04:06:12.962Z,8.60
2023-04-07T04:08:41.174Z,8.60
2023-04-07T04:11:09.266Z,8.60
2023-04-07T04:13:37.480Z,8.60
2023-04-07T04:16:06.290Z,8.60
2023-04-07T04:18:35.707Z,8.60
2023-04-07T04:21:03.715Z,8.60
2023-04-07T04:23:31.768Z,8.50
2023-04-07T04:26:03.964Z,8.60
2023-04-07T04:28:32.176Z,8.50
2023-04-07T04:31:00.342Z,8.50
2023-04-07T04:33:28.402Z,8.50
2023-04-07T04:35:57.925Z,8.50
2023-04-07T04:38:26.124Z,8.50
2023-04-07T04:40:54.268Z,8.50
2023-04-07T04:43:22.305Z,8.50
2023-04-07T04:45:50.902Z,8.50
2023-04-07T04:48:18.973Z,8.50
2023-04-07T04:50:47.032Z,8.50
2023-04-07T04:53:17.262Z,8.60
2023-04-07T04:55:48.153Z,8.50
2023-04-07T04:58:16.813Z,8.50
2023-04-07T05:00:45.011Z,8.50
2023-04-07T05:03:13.776Z,8.50
2023-04-07T05:05:42.632Z,8.50
2023-04-07T05:08:12.833Z,8.50
2023-04-07T05:10:42.609Z,8.50
2023-04-07T05:13:11.192Z,8.50
2023-04-07T05:15:40.302Z,8.50
2023-04-07T05:18:08.966Z,8.60
2023-04-07T05:20:37.288Z,8.60
2023-04-07T05:23:05.489Z,8.50
2023-04-07T05:25:34.138Z,8.50
2023-04-07T05:28:03.729Z,8.50
2023-04-07T05:30:31.847Z,8.60
2023-04-07T05:33:00.050Z,8.60
2023-04-07T05:35:28.250Z,8.50
2023-04-07T05:37:56.331Z,8.50
2023-04-07T05:40:24.482Z,8.50
2023-04-07T05:42:52.588Z,8.50
2023-04-07T05:45:22.038Z,8.60
2023-04-07T05:47:50.720Z,8.60
2023-04-07T05:50:19.196Z,8.70
2023-04-07T05:52:47.200Z,8.70
2023-04-07T05:55:15.554Z,8.60
2023-04-07T05:57:43.705Z,8.60
2023-04-07T06:00:12.921Z,8.60
2023-04-07T06:02:43.328Z,8.60
2023-04-07T06:05:11.798Z,8.60
2023-04-07T06:07:40.020Z,8.70
2023-04-07T06:10:09.650Z,8.70
2023-04-07T06:12:38.093Z,8.70
2023-04-07T06:15:06.789Z,8.80
2023-04-07T06:17:34.932Z,8.80
2023-04-07T06:20:04.729Z,8.80
2023-04-07T06:22:33.269Z,8.80
2023-04-07T06:25:01.352Z,8.80
2023-04-07T06:27:29.358Z,8.80
2023-04-07T06:29:58.015Z,8.80
2023-04-07T06:32:26.504Z,8.90
2023-04-07T06:34:54.612Z,8.90
2023-04-07T06:37:25.164Z,8.90
2023-04-07T06:39:53.274Z,9.00
2023-04-07T06:42:21.456Z,9.00
2023-04-07T06:44:49.522Z,9.10
2023-04-07T06:47:17.571Z,9.10
2023-04-07T06:49:45.647Z,9.10
2023-04-07T06:52:13.664Z,9.10
2023-04-07T06:54:43.257Z,9.10
2023-04-07T06:57:12.204Z,9.10
2023-04-07T06:59:40.461Z,9.10
2023-04-07T07:02:09.175Z,9.20
2023-04-07T07:04:37.492Z,9.20
2023-04-07T07:07:05.623Z,9.20
2023-04-07T07:09:33.608Z,9.30
2023-04-07T07:12:04.257Z,9.40
2023-04-07T07:14:32.514Z,9.40
2023-04-07T07:17:00.590Z,9.50
2023-04-07T07:19:28.764Z,9.60
2023-04-07T07:21:56.995Z,9.60
2023-04-07T07:24:25.265Z,9.70
2023-04-07T07:26:53.320Z,9.70
2023-04-07T07:29:23.085Z,9.60
2023-04-07T07:31:51.190Z,9.60
2023-04-07T07:34:19.239Z,9.70
2023-04-07T07:36:47.319Z,9.60
2023-04-07T07:39:15.421Z,9.70
2023-04-07T07:41:43.486Z,9.90
2023-04-07T07:44:11.595Z,10.10
2023-04-07T07:46:41.143Z,10.30
2023-04-07T07:49:09.334Z,10.50
2023-04-07T07:51:37.580Z,10.80
2023-04-07T07:54:05.834Z,10.90
2023-04-07T07:56:33.991Z,11.00
2023-04-07T07:59:02.123Z,11.10
2023-04-07T08:01:30.247Z,11.20
2023-04-07T08:03:59.861Z,11.30
2023-04-07T08:06:31.483Z,11.30
2023-04-07T08:08:59.871Z,11.40
2023-04-07T08:11:28.026Z,11.40
2023-04-07T08:13:56.179Z,11.50
2023-04-07T08:16:24.929Z,11.60
2023-04-07T08:18:53.155Z,11.60
2023-04-07T08:21:22.792Z,11.70
2023-04-07T08:23:51.108Z,11.80
2023-04-07T08:26:19.336Z,11.90
2023-04-07T08:28:47.379Z,12.10
2023-04-07T08:31:15.479Z,12.20
2023-04-07T08:33:43.743Z,12.30
2023-04-07T08:36:12.139Z,12.30
2023-04-07T08:38:41.681Z,12.40
2023-04-07T08:41:13.409Z,12.50
2023-04-07T08:43:43.756Z,12.50
2023-04-07T08:46:12.646Z,12.60
2023-04-07T08:48:43.900Z,12.60
2023-04-07T08:51:15.239Z,12.60
2023-04-07T08:53:50.608Z,12.70
2023-04-07T08:56:19.236Z,12.80
2023-04-07T08:58:49.013Z,12.80
2023-04-07T09:01:17.935Z,12.90
2023-04-07T09:03:46.986Z,13.00
2023-04-07T09:06:16.079Z,13.00
2023-04-07T09:08:45.494Z,13.00
2023-04-07T09:11:13.619Z,13.00
2023-04-07T09:13:44.594Z,13.10
2023-04-07T09:16:14.153Z,13.20
2023-04-07T09:18:45.102Z,13.30
2023-04-07T09:21:14.496Z,13.30
2023-04-07T09:23:45.519Z,13.40
2023-04-07T09:26:24.945Z,13.50
2023-04-07T09:28:55.720Z,13.60
2023-04-07T09:31:26.333Z,13.60
2023-04-07T09:33:55.572Z,13.60
2023-04-07T09:36:30.732Z,13.70
2023-04-07T09:39:09.839Z,13.80
2023-04-07T09:41:38.005Z,14.00
2023-04-07T09:44:06.270Z,14.00
2023-04-07T09:46:34.523Z,14.20
2023-04-07T09:49:05.282Z,14.20
2023-04-07T09:51:34.552Z,14.20
2023-04-07T09:54:03.993Z,14.10
2023-04-07T09:56:32.238Z,14.00
2023-04-07T09:59:00.977Z,13.90
2023-04-07T10:01:29.215Z,13.80
2023-04-07T10:03:57.975Z,13.90
2023-04-07T10:06:27.663Z,13.80
2023-04-07T10:08:55.832Z,13.90
2023-04-07T10:11:25.449Z,13.90
2023-04-07T10:13:53.771Z,13.90
2023-04-07T10:16:23.825Z,13.90
2023-04-07T10:18:52.313Z,13.80
2023-04-07T10:21:20.465Z,13.80
2023-04-07T10:23:58.625Z,13.70
2023-04-07T10:26:31.434Z,13.60
2023-04-07T10:29:05.412Z,13.50
2023-04-07T10:31:34.161Z,13.30
2023-04-07T10:34:02.832Z,13.10
2023-04-07T10:36:31.779Z,13.00
2023-04-07T10:39:20.938Z,12.80
2023-04-07T10:41:51.897Z,12.70
2023-04-07T10:44:53.108Z,12.60
2023-04-07T10:47:21.248Z,12.40
2023-04-07T10:50:25.976Z,12.40
2023-04-07T10:53:08.337Z,12.30
2023-04-07T10:55:38.720Z,12.20
2023-04-07T10:58:32.800Z,12.20
2023-04-07T11:01:20.931Z,12.00
2023-04-07T11:04:00.713Z,11.90
2023-04-07T11:06:29.109Z,11.80
2023-04-07T11:08:57.593Z,11.70
2023-04-07T11:11:39.999Z,11.60
2023-04-07T11:14:09.528Z,11.70
2023-04-07T11:16:39.701Z,11.80
2023-04-07T11:19:08.066Z,11.60
2023-04-07T11:21:37.051Z,11.60
2023-04-07T11:24:05.711Z,11.60
2023-04-07T11:26:40.252Z,11.50
2023-04-07T11:29:10.537Z,11.40
2023-04-07T11:31:40.085Z,11.40
2023-04-07T11:34:09.201Z,11.30
2023-04-07T11:36:40.962Z,11.20
2023-04-07T11:39:19.868Z,11.20
2023-04-07T11:41:49.300Z,11.10
2023-04-07T11:44:18.894Z,11.00
2023-04-07T11:47:05.315Z,11.00
2023-04-07T11:49:33.368Z,11.00
2023-04-07T11:52:03.453Z,10.90
2023-04-07T11:54:42.430Z,10.90
2023-04-07T11:57:12.604Z,10.90
2023-04-07T11:59:42.717Z,10.90
2023-04-07T12:02:11.001Z,10.80
2023-04-07T12:04:40.796Z,10.90
2023-04-07T12:07:10.952Z,10.90
2023-04-07T12:09:39.485Z,10.80
2023-04-07T12:12:10.737Z,10.80
2023-04-07T12:14:39.159Z,10.80
2023-04-07T12:17:09.565Z,10.90
2023-04-07T12:19:39.539Z,10.60
2023-04-07T12:22:07.806Z,10.70
2023-04-07T12:24:36.006Z,10.70
2023-04-07T12:27:04.341Z,10.80
2023-04-07T12:29:32.599Z,10.90
2023-04-07T12:32:00.790Z,11.00
2023-04-07T12:34:30.296Z,11.20
2023-04-07T12:36:58.608Z,11.30
2023-04-07T12:39:27.607Z,11.30
2023-04-07T12:41:55.762Z,11.40
2023-04-07T12:44:26.580Z,11.40
2023-04-07T12:46:54.764Z,11.40
2023-04-07T12:49:22.780Z,11.40
2023-04-07T12:51:52.777Z,11.30
2023-04-07T12:54:21.048Z,11.30
2023-04-07T12:56:49.073Z,11.20
2023-04-07T12:59:17.251Z,11.10
2023-04-07T13:01:45.500Z,11.10
2023-04-07T13:04:14.351Z,11.00
2023-04-07T13:06:42.637Z,11.10
2023-04-07T13:09:12.177Z,11.00
2023-04-07T13:11:40.244Z,11.00
2023-04-07T13:14:08.374Z,11.10
2023-04-07T13:16:36.574Z,11.10
2023-04-07T13:19:05.256Z,11.20
2023-04-07T13:24:04.463Z,11.20
2023-04-07T13:26:33.853Z,11.10
2023-04-07T13:29:02.172Z,11.10
2023-04-07T13:31:30.434Z,11.20
2023-04-07T13:33:58.379Z,11.20
2023-04-07T13:36:27.643Z,11.20
2023-04-07T13:38:56.775Z,11.20
2023-04-07T13:41:24.815Z,11.20
2023-04-07T13:43:54.293Z,11.20
2023-04-07T13:46:28.642Z,11.20
2023-04-07T13:48:57.453Z,11.20
2023-04-07T13:51:25.580Z,11.20
2023-04-07T13:53:53.763Z,11.30
2023-04-07T13:56:22.586Z,11.30
2023-04-07T13:58:50.711Z,11.20
2023-04-07T14:01:20.227Z,11.20
2023-04-07T14:03:49.508Z,11.20
2023-04-07T14:06:18.075Z,11.20
2023-04-07T14:08:46.127Z,11.30
2023-04-07T14:11:18.095Z,11.30
2023-04-07T14:13:46.395Z,11.30
2023-04-07T14:16:14.577Z,11.40
2023-04-07T14:18:44.244Z,11.30
2023-04-07T14:21:12.371Z,11.30
2023-04-07T14:23:40.427Z,11.30
2023-04-07T14:26:11.160Z,11.30
2023-04-07T14:28:39.597Z,11.30
2023-04-07T14:31:07.856Z,11.30
2023-04-07T14:33:36.005Z,11.40
2023-04-07T14:36:06.053Z,11.30
2023-04-07T14:38:35.312Z,11.30
2023-04-07T14:43:35.662Z,11.20
2023-04-07T14:46:03.743Z,11.20
2023-04-07T14:48:32.714Z,11.20
2023-04-07T14:51:09.204Z,11.20
2023-04-07T14:53:39.589Z,11.30
2023-04-07T14:56:08.392Z,11.30
2023-04-07T14:58:38.912Z,11.30
2023-04-07T15:01:07.641Z,11.20
2023-04-07T15:03:36.641Z,11.20
2023-04-07T15:06:08.688Z,11.20
2023-04-07T15:08:37.027Z,11.30
2023-04-07T15:11:07.520Z,11.30
2023-04-07T15:13:36.480Z,11.30
2023-04-07T15:16:09.292Z,11.30
2023-04-07T15:18:38.464Z,11.30
2023-04-07T15:21:06.877Z,11.20
2023-04-07T15:23:35.228Z,11.30
2023-04-07T15:26:03.377Z,11.40
2023-04-07T15:28:32.981Z,11.40
2023-04-07T15:31:01.558Z,11.50
2023-04-07T15:33:29.771Z,11.40
2023-04-07T15:35:59.327Z,11.40
2023-04-07T15:38:28.337Z,11.40
2023-04-07T15:40:56.591Z,11.50
2023-04-07T15:43:25.071Z,11.50
2023-04-07T15:45:56.305Z,11.50
2023-04-07T15:48:24.662Z,11.50
2023-04-07T15:50:54.497Z,11.50
2023-04-07T15:53:22.795Z,11.60
2023-04-07T15:55:50.993Z,11.60
2023-04-07T15:58:19.435Z,11.60
2023-04-07T16:00:47.670Z,11.70
2023-04-07T16:03:17.500Z,11.70
2023-04-07T16:05:45.684Z,11.60
2023-04-07T16:08:14.055Z,11.70
2023-04-07T16:10:42.998Z,11.70
2023-04-07T16:13:11.189Z,11.70
2023-04-07T16:15:41.170Z,11.70
2023-04-07T16:18:12.063Z,11.60
2023-04-07T16:20:41.803Z,11.60
2023-04-07T16:23:10.624Z,11.70
2023-04-07T16:25:38.785Z,11.70
2023-04-07T16:28:07.195Z,11.70
2023-04-07T16:30:36.162Z,11.60
2023-04-07T16:33:04.285Z,11.50
2023-04-07T16:35:32.585Z,11.60
2023-04-07T16:38:04.505Z,11.50
2023-04-07T16:40:33.072Z,11.60
2023-04-07T16:43:01.264Z,11.70
2023-04-07T16:45:29.526Z,11.80
2023-04-07T16:47:57.687Z,11.80
2023-04-07T16:50:25.800Z,11.80
2023-04-07T16:52:54.873Z,11.80
2023-04-07T16:55:24.531Z,11.80
2023-04-07T16:57:52.571Z,11.80
2023-04-07T17:00:21.223Z,11.80
2023-04-07T17:02:50.168Z,11.80
2023-04-07T17:05:18.505Z,11.80
2023-04-07T17:07:46.693Z,11.80
2023-04-07T17:10:15.420Z,11.70
2023-04-07T17:12:45.121Z,11.70
2023-04-07T17:15:13.148Z,11.70
2023-04-07T17:17:41.226Z,11.70
2023-04-07T17:20:10.832Z,11.70
2023-04-07T17:22:41.754Z,11.60
2023-04-07T17:25:10.961Z,11.60
2023-04-07T17:27:39.044Z,11.60
2023-04-07T17:30:09.988Z,11.50
2023-04-07T17:32:38.183Z,11.50
2023-04-07T17:35:06.965Z,11.50
2023-04-07T17:37:35.033Z,11.50
2023-04-07T17:40:03.203Z,11.50
2023-04-07T17:42:31.315Z,11.40
2023-04-07T17:44:59.399Z,11.40
2023-04-07T17:47:28.979Z,11.20
2023-04-07T17:49:57.213Z,11.30
2023-04-07T17:52:25.329Z,11.30
2023-04-07T17:54:53.405Z,11.30
2023-04-07T17:57:21.551Z,11.20
2023-04-07T17:59:49.796Z,11.10
2023-04-07T18:02:18.192Z,11.10
2023-04-07T18:04:47.875Z,11.00
2023-04-07T18:07:16.152Z,11.00
2023-04-07T18:09:45.018Z,11.00
2023-04-07T18:12:13.506Z,10.90
2023-04-07T18:14:41.624Z,10.90
2023-04-07T18:17:09.708Z,10.90
2023-04-07T18:19:37.785Z,10.80
2023-04-07T18:22:07.311Z,10.80
2023-04-07T18:24:35.407Z,10.80
2023-04-07T18:27:04.041Z,10.80
2023-04-07T18:29:32.437Z,10.70
2023-04-07T18:32:00.557Z,10.80
2023-04-07T18:34:28.827Z,10.70
2023-04-07T18:36:56.996Z,10.70
2023-04-07T18:39:28.207Z,10.60
2023-04-07T18:41:57.865Z,10.70
2023-04-07T18:44:26.074Z,10.60
2023-04-07T18:46:54.825Z,10.70
2023-04-07T18:49:23.130Z,10.70
2023-04-07T18:51:52.190Z,10.60
2023-04-07T18:54:21.202Z,10.60
2023-04-07T18:56:50.739Z,10.60
2023-04-07T18:59:18.852Z,10.60
2023-04-07T19:01:47.195Z,10.60
2023-04-07T19:04:16.428Z,10.50
2023-04-07T19:06:44.541Z,10.60
2023-04-07T19:09:12.696Z,10.60
2023-04-07T19:11:41.598Z,10.60
2023-04-07T19:14:11.060Z,10.60
2023-04-07T19:16:39.470Z,10.60
2023-04-07T19:19:07.855Z,10.50
2023-04-07T19:21:36.509Z,10.50
2023-04-07T19:24:04.908Z,10.60
2023-04-07T19:26:33.442Z,10.50
2023-04-07T19:29:03.020Z,10.50
2023-04-07T19:31:32.650Z,10.50
2023-04-07T19:34:03.566Z,10.40
2023-04-07T19:36:32.866Z,10.40
2023-04-07T19:39:01.024Z,10.50
2023-04-07T19:41:29.303Z,10.50
2023-04-07T19:43:57.403Z,10.40
2023-04-07T19:46:25.642Z,10.40
2023-04-07T19:48:55.119Z,10.40
2023-04-07T19:51:23.244Z,10.40
2023-04-07T19:53:51.845Z,10.30
2023-04-07T19:56:19.967Z,10.30
2023-04-07T19:58:48.325Z,10.30
2023-04-07T20:01:17.753Z,10.30
2023-04-07T20:03:46.392Z,10.30
2023-04-07T20:06:16.135Z,10.30
2023-04-07T20:08:44.708Z,10.20
2023-04-07T20:11:13.436Z,10.20
2023-04-07T20:13:42.000Z,10.20
2023-04-07T20:16:10.306Z,10.10
2023-04-07T20:18:38.489Z,10.00
2023-04-07T20:21:06.968Z,10.10
2023-04-07T20:23:36.608Z,10.00
2023-04-07T20:26:05.043Z,10.00
2023-04-07T20:28:33.197Z,10.00
2023-04-07T20:31:01.404Z,10.00
2023-04-07T20:33:29.491Z,10.00
2023-04-07T20:35:57.758Z,9.90
2023-04-07T20:38:26.123Z,9.90
2023-04-07T20:40:55.726Z,10.00
2023-04-07T20:43:23.972Z,10.00
2023-04-07T20:45:53.260Z,9.90
2023-04-07T20:48:23.957Z,9.90
2023-04-07T20:50:52.809Z,9.90
2023-04-07T20:53:21.470Z,9.90
2023-04-07T20:55:49.608Z,9.90
2023-04-07T20:58:19.511Z,9.90
2023-04-07T21:00:47.714Z,9.90
2023-04-07T21:03:16.429Z,9.80
2023-04-07T21:05:45.845Z,9.90
2023-04-07T21:08:14.800Z,9.90
2023-04-07T21:10:43.090Z,9.90
2023-04-07T21:13:11.314Z,9.90
2023-04-07T21:15:42.436Z,9.90
2023-04-07T21:18:10.620Z,9.80
2023-04-07T21:20:38.999Z,9.80
2023-04-07T21:23:08.554Z,9.70
2023-04-07T21:25:39.004Z,9.90
2023-04-07T21:28:07.396Z,9.90
2023-04-07T21:30:35.593Z,10.00
2023-04-07T21:33:05.258Z,10.00
2023-04-07T21:35:33.501Z,10.00
2023-04-07T21:38:01.710Z,10.00
2023-04-07T21:40:29.787Z,9.90
2023-04-07T21:42:58.066Z,9.90
2023-04-07T21:45:26.365Z,9.90
2023-04-07T21:47:54.524Z,10.00
2023-04-07T21:50:24.448Z,10.00
2023-04-07T21:52:52.920Z,10.00
2023-04-07T21:55:21.361Z,10.00
2023-04-07T21:57:50.283Z,10.00
2023-04-07T22:00:18.582Z,10.00
2023-04-07T22:02:46.785Z,10.00
2023-04-07T22:05:15.991Z,10.00
2023-04-07T22:07:46.847Z,10.00
2023-04-07T22:10:15.624Z,10.00
2023-04-07T22:12:43.779Z,10.10
2023-04-07T22:15:13.341Z,9.90
2023-04-07T22:17:41.776Z,10.00
2023-04-07T22:20:11.638Z,10.10
2023-04-07T22:22:40.059Z,10.10
2023-04-07T22:25:10.390Z,10.10
2023-04-07T22:27:38.480Z,10.10
2023-04-07T22:30:09.939Z,10.10
2023-04-07T22:32:38.319Z,10.20
2023-04-07T22:35:06.995Z,10.10
2023-04-07T22:37:35.085Z,10.10
2023-04-07T22:40:03.637Z,10.00
2023-04-07T22:42:33.100Z,10.10
2023-04-07T22:45:01.137Z,10.10
2023-04-07T22:47:29.219Z,10.00
2023-04-07T22:49:57.603Z,10.00
2023-04-07T22:52:25.740Z,10.10
2023-04-07T22:54:53.873Z,10.10
2023-04-07T22:57:22.071Z,10.00
2023-04-07T22:59:51.525Z,10.00
2023-04-07T23:02:19.732Z,10.00
2023-04-07T23:04:48.715Z,10.00
2023-04-07T23:07:17.210Z,10.00
2023-04-07T23:09:45.342Z,10.00
2023-04-07T23:12:13.412Z,10.00
2023-04-07T23:14:41.503Z,10.00
2023-04-07T23:17:10.986Z,10.00
2023-04-07T23:19:39.079Z,9.80
2023-04-07T23:22:07.123Z,9.90
2023-04-07T23:24:35.179Z,10.00
2023-04-07T23:27:03.294Z,10.00
2023-04-07T23:29:31.582Z,10.00
2023-04-07T23:31:59.741Z,10.00
2023-04-07T23:34:29.375Z,10.00
2023-04-07T23:36:57.435Z,10.00
2023-04-07T23:39:25.775Z,10.00
2023-04-07T23:41:53.771Z,9.90
2023-04-07T23:44:21.842Z,9.90
2023-04-07T23:46:49.878Z,9.90
2023-04-07T23:49:17.973Z,9.90
2023-04-07T23:51:47.481Z,9.80
2023-04-07T23:54:16.207Z,9.90
2023-04-07T23:56:44.286Z,9.80
2023-04-07T23:59:13.245Z,9.90
